BOX590 EDDP-RJAA
Flight info
| Callsign | BOX590 |
|---|---|
| Flight time | N/A |
| Altitude | 29000 |
| Route | DRN2S DRN Z21 OMELO DCT EVIKU DCT PATAK DCT GANNA DCT IRLOX DCT UDROS DCT CRM UM11 ARSUG/N0488F310 UM11 TBN UG261 NOLGA DCT BARAD M747 SUBUT T916 BALUN/K0911F310 T916 LONSI/K0902F330 T916 PIGAL M610 RULAD/K0896S1010 A343 POSOT B215 FKG W188 LIKMI W270 DKO W69 GUVBA/K0898S1070 W69 HUR B339 LADIX W34 VAPGU W100 ORAVA W201 UNSEK A326 DONVO G597 AGAVO/N0485F350 Y644 EGOBA G597 LANAT Y51 SAMON Y517 ESKAS Y303 ENTAK/N0482F360 Y30 SWAMP |
| Aircraft | B77L/H-SDE2E3GHIJ4J5M1P2RWXYZ/LB1D1 |
Departure
| Time | 2026-05-06 11:03 |
|---|---|
| Airport | Leipzig/Halle Airport (EDDP) |
Arrival
| Time | N/A |
|---|---|
| Airport | Narita International Airport (RJAA) |
| Time | Latitude | Longitude | Altitude | Speed | Heading |
|---|---|---|---|---|---|
| 2026-05-06 10:23 | 51.40765 | 12.24517 | 467 ft | 0 kts | 265° |
| 2026-05-06 10:27 | 51.40766 | 12.24517 | 467 ft | 0 kts | 265° |
| 2026-05-06 10:53 | 51.40767 | 12.24539 | 467 ft | 4 kts | 265° |
| 2026-05-06 10:54 | 51.40769 | 12.24582 | 467 ft | 4 kts | 265° |
| 2026-05-06 10:54 | 51.40771 | 12.24625 | 467 ft | 4 kts | 265° |
| 2026-05-06 10:54 | 51.40773 | 12.24668 | 464 ft | 4 kts | 265° |
| 2026-05-06 10:54 | 51.40774 | 12.24705 | 467 ft | 1 kts | 265° |
| 2026-05-06 10:57 | 51.40780 | 12.24681 | 467 ft | 6 kts | 304° |
| 2026-05-06 10:57 | 51.40818 | 12.24674 | 468 ft | 6 kts | 358° |
| 2026-05-06 10:57 | 51.40858 | 12.24671 | 469 ft | 6 kts | 356° |
| 2026-05-06 10:58 | 51.40899 | 12.24666 | 470 ft | 7 kts | 356° |
| 2026-05-06 10:58 | 51.40964 | 12.24658 | 470 ft | 11 kts | 356° |
| 2026-05-06 10:58 | 51.41045 | 12.24648 | 474 ft | 12 kts | 355° |
| 2026-05-06 10:58 | 51.41101 | 12.24710 | 469 ft | 12 kts | 80° |
| 2026-05-06 10:59 | 51.41108 | 12.24842 | 474 ft | 12 kts | 86° |
| 2026-05-06 10:59 | 51.41114 | 12.24973 | 476 ft | 12 kts | 86° |
| 2026-05-06 10:59 | 51.41120 | 12.25103 | 471 ft | 12 kts | 85° |
| 2026-05-06 10:59 | 51.41125 | 12.25234 | 476 ft | 12 kts | 86° |
| 2026-05-06 11:00 | 51.41131 | 12.25366 | 478 ft | 12 kts | 85° |
| 2026-05-06 11:00 | 51.41139 | 12.25497 | 478 ft | 12 kts | 84° |
| 2026-05-06 11:00 | 51.41163 | 12.25618 | 474 ft | 12 kts | 37° |
| 2026-05-06 11:00 | 51.41231 | 12.25621 | 480 ft | 7 kts | 355° |
| 2026-05-06 11:01 | 51.41279 | 12.25615 | 475 ft | 7 kts | 355° |
| 2026-05-06 11:01 | 51.41326 | 12.25608 | 484 ft | 7 kts | 354° |
| 2026-05-06 11:01 | 51.41373 | 12.25600 | 478 ft | 7 kts | 353° |
| 2026-05-06 11:01 | 51.41400 | 12.25553 | 475 ft | 7 kts | 265° |
| 2026-05-06 11:02 | 51.41391 | 12.25363 | 475 ft | 37 kts | 265° |
| 2026-05-06 11:02 | 51.41354 | 12.24572 | 481 ft | 106 kts | 265° |
| 2026-05-06 11:02 | 51.41280 | 12.23039 | 471 ft | 168 kts | 266° |
| 2026-05-06 11:02 | 51.41176 | 12.20954 | 669 ft | 194 kts | 266° |
| 2026-05-06 11:03 | 51.41079 | 12.18786 | 1199 ft | 196 kts | 266° |
| 2026-05-06 11:03 | 51.40975 | 12.16609 | 1852 ft | 193 kts | 265° |
| 2026-05-06 11:03 | 51.40835 | 12.14463 | 2285 ft | 198 kts | 262° |
| 2026-05-06 11:03 | 51.40644 | 12.12185 | 2387 ft | 215 kts | 258° |
| 2026-05-06 11:04 | 51.40054 | 12.09922 | 2574 ft | 227 kts | 234° |
| 2026-05-06 11:04 | 51.38988 | 12.08070 | 3216 ft | 223 kts | 221° |
| 2026-05-06 11:04 | 51.37679 | 12.06816 | 3724 ft | 225 kts | 208° |
| 2026-05-06 11:04 | 51.36210 | 12.05868 | 4079 ft | 233 kts | 195° |
| 2026-05-06 11:05 | 51.34530 | 12.05915 | 4211 ft | 258 kts | 165° |
| 2026-05-06 11:05 | 51.32854 | 12.07143 | 4452 ft | 272 kts | 155° |
| 2026-05-06 11:05 | 51.31147 | 12.08547 | 4920 ft | 279 kts | 158° |
| 2026-05-06 11:05 | 51.29380 | 12.09866 | 5548 ft | 282 kts | 160° |
| 2026-05-06 11:06 | 51.27563 | 12.11113 | 6176 ft | 286 kts | 161° |
| 2026-05-06 11:06 | 51.25713 | 12.12297 | 6807 ft | 287 kts | 162° |
| 2026-05-06 11:06 | 51.23844 | 12.13440 | 7441 ft | 288 kts | 163° |
| 2026-05-06 11:06 | 51.21985 | 12.14541 | 8055 ft | 291 kts | 163° |
| 2026-05-06 11:07 | 51.20072 | 12.15649 | 8653 ft | 293 kts | 164° |
| 2026-05-06 11:07 | 51.18149 | 12.16752 | 9241 ft | 295 kts | 164° |
| 2026-05-06 11:07 | 51.16214 | 12.17852 | 9845 ft | 295 kts | 164° |
| 2026-05-06 11:07 | 51.14253 | 12.18963 | 10203 ft | 307 kts | 164° |
| 2026-05-06 11:08 | 51.12180 | 12.20134 | 10337 ft | 325 kts | 164° |
| 2026-05-06 11:08 | 51.09989 | 12.21369 | 10489 ft | 343 kts | 164° |
| 2026-05-06 11:08 | 51.07685 | 12.22666 | 10704 ft | 359 kts | 164° |
| 2026-05-06 11:08 | 51.05318 | 12.24059 | 11074 ft | 366 kts | 158° |
| 2026-05-06 11:09 | 51.03231 | 12.26411 | 11396 ft | 384 kts | 134° |
| 2026-05-06 11:09 | 51.01828 | 12.30068 | 12028 ft | 394 kts | 113° |
| 2026-05-06 11:09 | 51.01277 | 12.34355 | 12681 ft | 401 kts | 93° |
| 2026-05-06 11:09 | 51.01309 | 12.38803 | 13094 ft | 407 kts | 91° |
| 2026-05-06 11:10 | 51.01366 | 12.43342 | 13563 ft | 415 kts | 91° |
| 2026-05-06 11:10 | 51.01423 | 12.47938 | 14137 ft | 417 kts | 91° |
| 2026-05-06 11:10 | 51.01475 | 12.52548 | 14767 ft | 418 kts | 91° |
| 2026-05-06 11:10 | 51.01517 | 12.57172 | 15405 ft | 420 kts | 92° |
| 2026-05-06 11:11 | 51.01550 | 12.61818 | 15955 ft | 423 kts | 92° |
| 2026-05-06 11:11 | 51.01575 | 12.66448 | 16486 ft | 426 kts | 92° |
| 2026-05-06 11:11 | 51.01597 | 12.71167 | 17030 ft | 429 kts | 92° |
| 2026-05-06 11:11 | 51.01614 | 12.75924 | 17590 ft | 432 kts | 92° |
| 2026-05-06 11:12 | 51.01630 | 12.80703 | 18139 ft | 434 kts | 92° |
| 2026-05-06 11:12 | 51.01642 | 12.85514 | 18619 ft | 438 kts | 92° |
| 2026-05-06 11:12 | 51.01653 | 12.90369 | 19064 ft | 441 kts | 92° |
| 2026-05-06 11:12 | 51.01662 | 12.95248 | 19499 ft | 444 kts | 92° |
| 2026-05-06 11:13 | 51.01669 | 13.00174 | 19906 ft | 448 kts | 92° |
| 2026-05-06 11:13 | 51.01675 | 13.05142 | 20319 ft | 451 kts | 92° |
| 2026-05-06 11:13 | 51.01678 | 13.10076 | 20727 ft | 455 kts | 92° |
| 2026-05-06 11:13 | 51.01680 | 13.15117 | 21151 ft | 458 kts | 92° |
| 2026-05-06 11:14 | 51.01679 | 13.20191 | 21563 ft | 462 kts | 92° |
| 2026-05-06 11:14 | 51.01676 | 13.25306 | 21975 ft | 465 kts | 92° |
| 2026-05-06 11:14 | 51.01671 | 13.30463 | 22383 ft | 468 kts | 93° |
| 2026-05-06 11:14 | 51.01664 | 13.35657 | 22742 ft | 472 kts | 92° |
| 2026-05-06 11:15 | 51.01654 | 13.40893 | 23100 ft | 477 kts | 92° |
| 2026-05-06 11:15 | 51.01643 | 13.46183 | 23469 ft | 480 kts | 93° |
| 2026-05-06 11:15 | 51.01629 | 13.51433 | 23825 ft | 482 kts | 93° |
| 2026-05-06 11:15 | 51.01569 | 13.56740 | 24156 ft | 480 kts | 98° |
| 2026-05-06 11:16 | 51.00850 | 13.61887 | 24345 ft | 476 kts | 117° |
| 2026-05-06 11:16 | 50.99194 | 13.66349 | 24607 ft | 465 kts | 131° |
| 2026-05-06 11:16 | 50.97302 | 13.70542 | 24849 ft | 471 kts | 128° |
| 2026-05-06 11:16 | 50.95516 | 13.74930 | 25171 ft | 475 kts | 127° |
| 2026-05-06 11:17 | 50.93765 | 13.79375 | 25547 ft | 476 kts | 127° |
| 2026-05-06 11:17 | 50.91939 | 13.83744 | 25921 ft | 475 kts | 131° |
| 2026-05-06 11:17 | 50.89917 | 13.87881 | 26250 ft | 475 kts | 134° |
| 2026-05-06 11:17 | 50.87861 | 13.91899 | 26579 ft | 477 kts | 134° |
| 2026-05-06 11:18 | 50.85788 | 13.96027 | 26910 ft | 480 kts | 133° |
| 2026-05-06 11:18 | 50.83679 | 14.00125 | 27233 ft | 480 kts | 137° |
| 2026-05-06 11:18 | 50.81348 | 14.03866 | 27535 ft | 477 kts | 143° |
| 2026-05-06 11:18 | 50.78875 | 14.07361 | 27877 ft | 477 kts | 144° |
| 2026-05-06 11:19 | 50.76393 | 14.10864 | 28190 ft | 479 kts | 144° |
| 2026-05-06 11:19 | 50.73910 | 14.14388 | 28462 ft | 481 kts | 144° |
| 2026-05-06 11:19 | 50.71457 | 14.17894 | 28716 ft | 483 kts | 143° |